Time;durP1;ratioP1;P1;durP2;ratioP2;P2;SDS_P1;SDS_P2;PMS_P1;PMS_P2;Temp;Humidity;BMP_temperature;BMP_pressure;BME280_temperature;BME280_humidity;BME280_pressure;Samples;Min_cycle;Max_cycle;Signal;HPM_P1;HPM_P2
2021/06/06 00:00:14;;;;;;;10.37;9.47;;;19.80;99.90;;;;;;5092451;28;20456;-84
2021/06/06 00:02:40;;;;;;;10.10;9.10;;;19.80;99.90;;;;;;5076271;28;20434;-84
2021/06/06 00:05:08;;;;;;;8.60;7.90;;;19.80;99.90;;;;;;5078159;28;20445;-84
2021/06/06 00:07:34;;;;;;;9.37;8.40;;;19.90;99.90;;;;;;5084733;28;20476;-84
2021/06/06 00:10:00;;;;;;;9.93;9.03;;;19.80;99.90;;;;;;5097645;28;20455;-84
2021/06/06 00:12:27;;;;;;;8.73;7.93;;;19.80;99.90;;;;;;5099352;28;20460;-83
2021/06/06 00:14:55;;;;;;;9.80;8.83;;;19.70;99.90;;;;;;5085210;28;20483;-84
2021/06/06 00:17:22;;;;;;;9.40;8.60;;;19.70;99.90;;;;;;5084904;28;20990;-84
2021/06/06 00:19:48;;;;;;;10.60;9.70;;;19.60;99.90;;;;;;5103983;22;20500;-90
2021/06/06 00:22:14;;;;;;;9.30;8.50;;;20.40;99.90;;;;;;5084155;28;20444;-89
2021/06/06 00:24:42;;;;;;;9.60;8.80;;;19.30;99.90;;;;;;5083286;28;20448;-89
2021/06/06 00:27:15;;;;;;;10.50;9.60;;;19.20;99.90;;;;;;5083876;28;20934;-89
2021/06/06 00:29:44;;;;;;;10.60;9.23;;;19.10;99.90;;;;;;5084195;28;20958;-90
2021/06/06 00:32:10;;;;;;;9.93;9.03;;;19.00;99.90;;;;;;5084034;28;20871;-90
2021/06/06 00:34:37;;;;;;;10.80;9.17;;;;;;;;;;5082520;28;20454;-90
2021/06/06 00:37:03;;;;;;;9.60;8.80;;;18.90;99.90;;;;;;5082748;28;20448;-89
2021/06/06 00:39:30;;;;;;;10.67;9.77;;;18.90;99.90;;;;;;5083034;28;20820;-89
2021/06/06 00:41:56;;;;;;;10.67;9.77;;;18.90;99.90;;;;;;5082500;28;20456;-88
2021/06/06 00:44:24;;;;;;;10.63;9.63;;;18.90;99.90;;;;;;5082993;28;20901;-90
2021/06/06 00:46:52;;;;;;;10.17;9.20;;;18.90;99.90;;;;;;5083161;28;20458;-89
2021/06/06 00:49:19;;;;;;;9.83;8.93;;;18.80;99.90;;;;;;5083200;28;20470;-89
2021/06/06 00:51:49;;;;;;;10.13;9.17;;;18.80;99.90;;;;;;5082684;28;20792;-82
2021/06/06 00:54:18;;;;;;;11.00;9.90;;;18.80;99.90;;;;;;5085589;28;20439;-88
2021/06/06 00:56:48;;;;;;;10.43;9.53;;;18.80;99.90;;;;;;5084758;28;20485;-88
2021/06/06 00:59:17;;;;;;;10.20;9.20;;;18.70;99.90;;;;;;5087278;28;20482;-89
2021/06/06 01:01:44;;;;;;;11.40;10.50;;;18.60;99.90;;;;;;5086042;28;20792;-88
2021/06/06 01:04:12;;;;;;;10.20;9.40;;;18.50;99.90;;;;;;5090011;28;20480;-90
2021/06/06 01:06:43;;;;;;;11.07;10.10;;;20.00;99.90;;;;;;5095315;28;20464;-89
2021/06/06 01:09:10;;;;;;;12.00;11.00;;;18.50;99.90;;;;;;5104121;28;20446;-90
2021/06/06 01:11:50;;;;;;;11.13;10.13;;;18.40;99.90;;;;;;5101000;28;20446;-89
2021/06/06 01:14:21;;;;;;;10.40;9.30;;;18.40;99.90;;;;;;5095723;28;20419;-88
2021/06/06 01:16:53;;;;;;;9.83;9.07;;;18.10;99.90;;;;;;5094701;28;20468;-89
2021/06/06 01:19:41;;;;;;;11.07;10.10;;;18.40;99.90;;;;;;5088252;28;20813;-88
2021/06/06 01:22:19;;;;;;;10.47;9.43;;;18.40;99.90;;;;;;5087539;28;20818;-87
2021/06/06 01:24:50;;;;;;;10.50;9.50;;;18.30;99.90;;;;;;5094621;28;20413;-87
2021/06/06 01:27:20;;;;;;;10.23;9.27;;;18.50;99.90;;;;;;5101173;28;20421;-88
2021/06/06 01:29:50;;;;;;;11.83;10.60;;;18.40;99.90;;;;;;5101018;28;20454;-89
2021/06/06 01:32:21;;;;;;;10.30;9.43;;;18.50;99.90;;;;;;5094193;28;20901;-89
2021/06/06 01:34:51;;;;;;;10.30;9.40;;;18.40;99.90;;;;;;5085450;28;20466;-89
2021/06/06 01:37:21;;;;;;;10.87;9.80;;;18.50;99.90;;;;;;5083790;28;20830;-89
2021/06/06 01:39:51;;;;;;;11.90;9.97;;;18.30;99.90;;;;;;5083477;28;20465;-91
2021/06/06 01:42:21;;;;;;;10.30;9.30;;;18.30;99.90;;;;;;5083366;28;20446;-91
2021/06/06 01:44:51;;;;;;;10.00;9.07;;;18.10;99.90;;;;;;5083645;28;20473;-90
2021/06/06 01:47:21;;;;;;;11.23;10.20;;;19.20;99.90;;;;;;5080982;28;20468;-89
2021/06/06 01:49:51;;;;;;;10.90;10.00;;;17.60;99.90;;;;;;5080791;28;20921;-89
2021/06/06 01:52:18;;;;;;;12.33;10.67;;;17.90;99.90;;;;;;5080972;28;20826;-90
2021/06/06 01:54:45;;;;;;;11.60;10.50;;;17.90;99.90;;;;;;5086403;28;20460;-90
2021/06/06 01:57:17;;;;;;;11.57;10.23;;;17.70;99.90;;;;;;5083970;28;20604;-90
2021/06/06 01:59:46;;;;;;;11.27;10.20;;;17.30;99.90;;;;;;5082073;28;20458;-90
2021/06/06 02:02:14;;;;;;;11.10;10.03;;;17.70;99.90;;;;;;5080643;28;20526;-90
2021/06/06 02:04:40;;;;;;;12.27;10.20;;;17.00;99.90;;;;;;5081391;28;20447;-90
2021/06/06 02:07:10;;;;;;;12.07;10.87;;;17.80;99.90;;;;;;5079825;28;20420;-90
2021/06/06 02:09:42;;;;;;;10.83;9.77;;;17.90;99.90;;;;;;5080304;28;20948;-90
2021/06/06 02:12:09;;;;;;;13.13;11.83;;;17.90;99.90;;;;;;5080913;28;20442;-90
2021/06/06 02:14:39;;;;;;;13.17;11.60;;;17.80;99.90;;;;;;5081641;28;20454;-90
2021/06/06 02:17:08;;;;;;;11.03;10.13;;;17.80;99.90;;;;;;5081047;28;20428;-90
2021/06/06 02:19:37;;;;;;;12.17;10.97;;;17.90;99.90;;;;;;5080793;28;20489;-90
2021/06/06 02:22:06;;;;;;;12.23;11.07;;;17.90;99.90;;;;;;5080292;28;20447;-90
2021/06/06 02:24:33;;;;;;;12.00;10.47;;;18.00;99.90;;;;;;5080203;28;20453;-90
2021/06/06 02:27:04;;;;;;;11.77;10.67;;;18.00;99.90;;;;;;5079737;28;20439;-90
2021/06/06 02:29:36;;;;;;;11.73;10.63;;;18.00;99.90;;;;;;5077908;28;20470;-90
2021/06/06 02:32:12;;;;;;;11.23;10.30;;;17.80;99.90;;;;;;5080369;28;20423;-90
2021/06/06 02:34:46;;;;;;;11.57;10.47;;;17.60;99.90;;;;;;5080659;28;20427;-90
2021/06/06 02:37:19;;;;;;;11.23;10.33;;;17.60;99.90;;;;;;5097202;28;20446;-90
2021/06/06 02:39:50;;;;;;;13.43;12.23;;;17.20;99.90;;;;;;5098050;28;20474;-85
2021/06/06 02:42:21;;;;;;;11.93;10.93;;;17.60;99.90;;;;;;5091340;28;20415;-86
2021/06/06 02:44:51;;;;;;;12.20;11.10;;;17.50;99.90;;;;;;5099823;28;20473;-92
2021/06/06 02:47:24;;;;;;;13.30;11.87;;;17.50;99.90;;;;;;5100133;28;20444;-92
2021/06/06 02:49:52;;;;;;;12.03;10.97;;;17.40;99.90;;;;;;5099243;28;20454;-91
2021/06/06 02:52:22;;;;;;;12.37;11.33;;;17.50;99.90;;;;;;5094100;28;20480;-90
2021/06/06 02:54:54;;;;;;;12.43;11.33;;;17.50;99.90;;;;;;5098009;28;20413;-90
2021/06/06 02:57:21;;;;;;;14.87;12.53;;;17.40;99.90;;;;;;5096861;28;20434;-90
2021/06/06 02:59:51;;;;;;;13.20;11.90;;;17.50;99.90;;;;;;5081227;28;20484;-90
2021/06/06 03:02:21;;;;;;;12.30;11.30;;;17.50;99.90;;;;;;5079830;28;20947;-90
2021/06/06 03:04:52;;;;;;;12.93;11.80;;;17.40;99.90;;;;;;5080474;28;20469;-91
2021/06/06 03:07:23;;;;;;;13.50;12.30;;;17.40;99.90;;;;;;5083002;28;20432;-90
2021/06/06 03:09:49;;;;;;;14.27;11.53;;;17.50;99.90;;;;;;5079682;28;20495;-89
2021/06/06 03:12:17;;;;;;;13.53;12.40;;;16.20;99.90;;;;;;5079010;28;20451;-89
2021/06/06 03:14:50;;;;;;;15.47;11.57;;;17.30;99.90;;;;;;5078697;28;20947;-90
2021/06/06 03:17:26;;;;;;;16.43;12.07;;;17.20;99.90;;;;;;5078635;28;20444;-90
2021/06/06 03:19:55;;;;;;;12.90;11.20;;;17.20;99.90;;;;;;5078683;28;20480;-90
2021/06/06 03:22:26;;;;;;;13.73;11.90;;;17.30;99.90;;;;;;5077621;28;21016;-90
2021/06/06 03:24:57;;;;;;;14.50;12.63;;;17.20;99.90;;;;;;5077795;28;20434;-90
2021/06/06 03:27:26;;;;;;;13.13;11.83;;;17.30;99.90;;;;;;5078240;28;20444;-89
2021/06/06 03:29:57;;;;;;;13.83;12.73;;;17.30;99.90;;;;;;5077181;28;20468;-91
2021/06/06 03:32:30;;;;;;;13.97;12.47;;;17.20;99.90;;;;;;5079342;28;20428;-90
2021/06/06 03:34:56;;;;;;;13.23;12.10;;;17.30;99.90;;;;;;5078430;28;20424;-90
2021/06/06 03:37:24;;;;;;;13.87;12.57;;;17.30;99.90;;;;;;5091167;28;20432;-91
2021/06/06 03:39:50;;;;;;;12.77;11.83;;;17.30;99.90;;;;;;5089702;28;21044;-91
2021/06/06 03:42:16;;;;;;;13.27;12.07;;;17.20;99.90;;;;;;5078826;28;20506;-90
2021/06/06 03:44:42;;;;;;;15.40;13.40;;;17.30;99.90;;;;;;5078124;28;20822;-90
2021/06/06 03:47:09;;;;;;;14.87;13.37;;;17.20;99.90;;;;;;5078019;28;20440;-90
2021/06/06 03:49:37;;;;;;;13.80;12.60;;;17.20;99.90;;;;;;5079147;28;20473;-90
2021/06/06 03:52:06;;;;;;;15.73;14.20;;;17.20;99.90;;;;;;5078446;28;20474;-89
2021/06/06 03:54:32;;;;;;;14.40;13.10;;;17.30;99.90;;;;;;5081991;28;20453;-89
2021/06/06 03:57:05;;;;;;;14.47;13.17;;;17.40;99.90;;;;;;5086992;28;20460;-89
2021/06/06 03:59:32;;;;;;;14.00;12.70;;;;;;;;;;5086813;28;20840;-88
2021/06/06 04:02:05;;;;;;;14.57;13.10;;;17.40;99.90;;;;;;5082551;28;20477;-90
2021/06/06 04:04:31;;;;;;;13.97;12.67;;;16.80;99.90;;;;;;5080834;28;20464;-90
2021/06/06 04:06:59;;;;;;;14.60;13.20;;;17.40;99.90;;;;;;5080036;28;20445;-90
2021/06/06 04:09:25;;;;;;;15.13;13.70;;;;;;;;;;5092701;28;20438;-89
2021/06/06 04:11:51;;;;;;;14.00;12.67;;;17.40;99.90;;;;;;5094703;28;20444;-77
2021/06/06 04:14:19;;;;;;;13.20;12.20;;;17.40;99.90;;;;;;5084360;28;20453;-89
2021/06/06 04:16:45;;;;;;;13.93;12.73;;;17.40;99.90;;;;;;5079625;28;20481;-89
2021/06/06 04:19:11;;;;;;;15.33;13.93;;;17.60;99.90;;;;;;5080831;28;20480;-89
2021/06/06 04:21:38;;;;;;;14.43;13.07;;;17.40;99.90;;;;;;5080953;28;20510;-90
2021/06/06 04:24:06;;;;;;;14.73;13.43;;;17.40;99.90;;;;;;5078780;28;20433;-89
2021/06/06 04:26:33;;;;;;;14.97;13.77;;;17.40;99.90;;;;;;5085392;28;20451;-89
2021/06/06 04:28:59;;;;;;;15.07;13.13;;;17.40;99.90;;;;;;5084358;28;20465;-89
2021/06/06 04:31:26;;;;;;;14.10;12.90;;;17.20;99.90;;;;;;5081455;28;20486;-89
2021/06/06 04:33:52;;;;;;;15.60;14.10;;;17.20;99.90;;;;;;5078131;28;20444;-89
2021/06/06 04:36:19;;;;;;;14.75;13.45;;;17.30;99.90;;;;;;5092216;28;20462;-90
2021/06/06 04:38:53;;;;;;;15.83;14.43;;;17.40;99.90;;;;;;5098140;28;20202;-89
2021/06/06 04:41:21;;;;;;;14.93;13.33;;;17.60;99.90;;;;;;5092061;28;20442;-89
2021/06/06 04:43:47;;;;;;;15.23;13.83;;;17.50;99.90;;;;;;5085255;28;20461;-89
2021/06/06 04:46:15;;;;;;;14.77;13.57;;;17.60;99.90;;;;;;5084765;28;20443;-89
2021/06/06 04:48:43;;;;;;;16.60;15.07;;;17.70;99.90;;;;;;5084565;28;20477;-89
2021/06/06 04:51:14;;;;;;;19.93;13.97;;;17.80;99.90;;;;;;5085703;28;20453;-89
2021/06/06 04:53:41;;;;;;;15.17;13.87;;;;;;;;;;5085663;28;20430;-89
2021/06/06 04:56:13;;;;;;;14.80;13.60;;;17.90;99.90;;;;;;5087802;28;20482;-88
2021/06/06 04:58:41;;;;;;;16.17;14.77;;;19.00;99.90;;;;;;5083739;28;20475;-87
2021/06/06 05:01:07;;;;;;;17.57;15.13;;;18.10;99.90;;;;;;5085249;28;20500;-87
2021/06/06 05:03:33;;;;;;;16.67;14.97;;;18.20;99.90;;;;;;5085916;28;20462;-87
2021/06/06 05:06:01;;;;;;;16.20;14.60;;;18.20;99.90;;;;;;5086832;28;20446;-87
2021/06/06 05:08:28;;;;;;;15.60;14.30;;;18.10;99.90;;;;;;5086153;28;20465;-87
2021/06/06 05:10:54;;;;;;;16.23;14.53;;;18.10;99.90;;;;;;5087526;28;20461;-87
2021/06/06 05:13:22;;;;;;;14.27;13.07;;;18.10;99.90;;;;;;5084933;28;20462;-87
2021/06/06 05:15:51;;;;;;;16.33;14.80;;;18.10;99.90;;;;;;5092535;28;20477;-87
2021/06/06 05:18:17;;;;;;;18.27;16.40;;;18.20;99.90;;;;;;5093469;28;20484;-87
2021/06/06 05:20:46;;;;;;;17.33;15.73;;;18.30;99.90;;;;;;5089563;28;20518;-87
2021/06/06 05:23:13;;;;;;;18.47;16.57;;;18.40;99.90;;;;;;5084327;28;20442;-87
2021/06/06 05:25:41;;;;;;;18.27;16.57;;;18.40;99.90;;;;;;5083625;28;20474;-87
2021/06/06 05:28:10;;;;;;;16.77;15.27;;;18.60;99.90;;;;;;5084865;28;20565;-87
2021/06/06 05:30:38;;;;;;;18.73;16.93;;;18.70;99.90;;;;;;5091153;28;20452;-87
2021/06/06 05:33:07;;;;;;;16.83;15.33;;;18.70;99.90;;;;;;5085423;28;20450;-87
2021/06/06 05:35:35;;;;;;;17.77;16.27;;;18.80;99.90;;;;;;5082416;28;20490;-87
2021/06/06 05:38:01;;;;;;;18.90;16.80;;;18.80;99.90;;;;;;5082853;28;20578;-87
2021/06/06 05:40:30;;;;;;;17.90;16.20;;;18.80;99.90;;;;;;5093782;28;20458;-87
2021/06/06 05:42:57;;;;;;;17.30;15.70;;;18.80;99.90;;;;;;5098170;28;20419;-87
2021/06/06 05:45:24;;;;;;;19.37;17.67;;;18.80;99.90;;;;;;5100009;28;20449;-87
2021/06/06 05:47:51;;;;;;;17.63;16.03;;;18.90;99.90;;;;;;5097501;28;20471;-87
2021/06/06 05:50:22;;;;;;;17.60;15.87;;;19.00;99.90;;;;;;5097833;28;20451;-88
2021/06/06 05:52:49;;;;;;;16.07;14.70;;;19.10;99.90;;;;;;5095313;28;20493;-87
2021/06/06 05:55:19;;;;;;;18.47;16.60;;;19.10;99.90;;;;;;5096399;28;20455;-87
2021/06/06 05:57:46;;;;;;;18.20;16.70;;;19.30;99.90;;;;;;5096596;28;20435;-87
2021/06/06 06:00:16;;;;;;;17.93;16.33;;;19.40;99.90;;;;;;5095769;28;20451;-87
2021/06/06 06:02:42;;;;;;;19.73;18.10;;;19.40;99.90;;;;;;5096446;28;20439;-86
2021/06/06 06:05:09;;;;;;;19.10;17.40;;;19.50;99.90;;;;;;5098047;28;20431;-86
2021/06/06 06:07:36;;;;;;;22.50;16.97;;;19.50;99.90;;;;;;5100166;28;20458;-87
2021/06/06 06:10:05;;;;;;;16.03;14.63;;;19.60;99.90;;;;;;5097403;28;20450;-87
2021/06/06 06:12:32;;;;;;;19.03;17.20;;;19.70;99.90;;;;;;5097249;28;20486;-87
2021/06/06 06:14:58;;;;;;;16.07;14.50;;;19.70;99.90;;;;;;5098790;28;20435;-87
2021/06/06 06:17:24;;;;;;;18.50;16.70;;;19.80;99.90;;;;;;5099975;28;20472;-86
2021/06/06 06:19:51;;;;;;;18.10;16.40;;;19.80;99.90;;;;;;5098663;28;20484;-87
2021/06/06 06:22:17;;;;;;;15.57;14.03;;;19.90;99.90;;;;;;5092408;28;20452;-88
2021/06/06 06:24:46;;;;;;;18.60;16.80;;;20.00;99.90;;;;;;5079596;28;20463;-88
2021/06/06 06:27:12;;;;;;;15.60;14.30;;;20.00;99.90;;;;;;5079510;28;20479;-88
2021/06/06 06:29:39;;;;;;;19.37;17.57;;;20.10;99.90;;;;;;5080464;28;20469;-88
2021/06/06 06:32:06;;;;;;;17.57;16.17;;;20.20;99.90;;;;;;5081590;28;20445;-87
2021/06/06 06:34:33;;;;;;;15.93;14.63;;;20.30;99.90;;;;;;5079935;28;20441;-87
2021/06/06 06:36:59;;;;;;;18.03;16.43;;;20.40;99.90;;;;;;5079686;28;20533;-87
2021/06/06 06:39:25;;;;;;;15.97;14.57;;;20.60;99.90;;;;;;5082569;28;20465;-87
2021/06/06 06:41:55;;;;;;;18.87;17.27;;;20.60;99.90;;;;;;5080830;28;20440;-87
2021/06/06 06:44:21;;;;;;;17.23;15.83;;;20.60;99.90;;;;;;5079842;28;20788;-88
2021/06/06 06:46:55;;;;;;;16.50;14.97;;;20.70;99.90;;;;;;5082082;28;20448;-88
2021/06/06 06:49:25;;;;;;;16.70;15.00;;;21.00;99.90;;;;;;5097923;28;20503;-88
2021/06/06 06:51:51;;;;;;;16.37;14.87;;;20.70;99.90;;;;;;5099281;28;20443;-88
2021/06/06 06:54:18;;;;;;;16.73;15.30;;;;;;;;;;5099506;28;20436;-87
2021/06/06 06:56:44;;;;;;;17.13;15.73;;;21.10;99.90;;;;;;5095876;28;20477;-88
2021/06/06 06:59:11;;;;;;;16.30;14.90;;;21.20;99.90;;;;;;5098742;28;20464;-86
2021/06/06 07:01:40;;;;;;;18.40;16.60;;;21.20;99.90;;;;;;5098412;28;20447;-86
2021/06/06 07:04:06;;;;;;;16.70;15.13;;;21.30;99.90;;;;;;5098159;28;20425;-87
2021/06/06 07:06:33;;;;;;;18.20;16.33;;;21.30;99.90;;;;;;5096116;28;20453;-87
2021/06/06 07:08:59;;;;;;;17.37;15.87;;;21.50;99.90;;;;;;5096969;28;20471;-87
2021/06/06 07:11:28;;;;;;;15.90;14.50;;;21.60;99.90;;;;;;5097120;28;20448;-86
2021/06/06 07:13:55;;;;;;;14.40;13.20;;;21.70;99.90;;;;;;5092323;28;20456;-87
2021/06/06 07:16:24;;;;;;;16.30;14.93;;;21.80;99.90;;;;;;5091514;28;20464;-86
2021/06/06 07:19:02;;;;;;;17.67;15.97;;;21.90;99.90;;;;;;5092511;28;20499;-87
2021/06/06 07:22:26;;;;;;;;;;;;;;;;;;;;;
2021/06/06 07:30:50;;;;;;;14.70;13.40;;;22.30;99.90;;;;;;5080340;28;20937;-87
2021/06/06 07:33:41;;;;;;;13.60;12.60;;;22.40;99.90;;;;;;5079363;28;20449;-90
2021/06/06 07:36:31;;;;;;;13.93;12.80;;;21.70;99.90;;;;;;5078225;28;20473;-88
2021/06/06 07:38:58;;;;;;;13.00;11.90;;;22.60;99.90;;;;;;5078417;28;20917;-88
2021/06/06 07:41:25;;;;;;;12.60;11.70;;;22.70;99.90;;;;;;5078828;28;20854;-85
2021/06/06 07:43:51;;;;;;;12.30;11.33;;;22.80;99.90;;;;;;5078050;28;20449;-87
2021/06/06 07:46:18;;;;;;;14.03;12.73;;;22.80;99.90;;;;;;5078343;28;20456;-87
2021/06/06 07:48:46;;;;;;;12.90;11.70;;;23.00;99.90;;;;;;5077426;28;20480;-87
2021/06/06 07:51:12;;;;;;;12.00;11.10;;;23.00;99.90;;;;;;5078101;28;20433;-78
2021/06/06 07:53:38;;;;;;;14.50;13.10;;;23.10;99.90;;;;;;5088761;28;20425;-83
2021/06/06 07:56:05;;;;;;;12.53;11.57;;;23.10;99.90;;;;;;5083939;28;20476;-84
2021/06/06 07:58:35;;;;;;;12.03;11.13;;;23.20;99.90;;;;;;5077895;28;20473;-85
2021/06/06 08:01:01;;;;;;;13.10;11.90;;;23.20;99.90;;;;;;5078060;28;21014;-84
2021/06/06 08:03:29;;;;;;;12.03;11.03;;;23.30;99.90;;;;;;5079031;28;20429;-84
2021/06/06 08:05:58;;;;;;;17.07;10.80;;;23.30;99.90;;;;;;5091008;28;20441;-84
2021/06/06 08:08:25;;;;;;;13.40;12.30;;;23.40;99.90;;;;;;5091254;28;20465;-84
2021/06/06 08:11:00;;;;;;;12.77;11.73;;;23.40;99.90;;;;;;5084268;28;20480;-84
2021/06/06 08:13:27;;;;;;;12.73;11.63;;;23.50;99.90;;;;;;5082668;28;20437;-84
2021/06/06 08:15:55;;;;;;;11.33;10.33;;;23.60;99.90;;;;;;5081217;28;20489;-84
2021/06/06 08:18:24;;;;;;;12.03;11.03;;;23.60;99.90;;;;;;5079874;28;20516;-83
2021/06/06 08:20:54;;;;;;;12.40;11.40;;;23.70;99.90;;;;;;5079136;28;20454;-84
2021/06/06 08:23:23;;;;;;;14.80;13.50;;;23.70;99.90;;;;;;5078157;28;20928;-84
2021/06/06 08:25:55;;;;;;;11.60;10.73;;;23.70;99.90;;;;;;5078610;28;20450;-85
2021/06/06 08:28:22;;;;;;;11.00;10.20;;;23.70;99.90;;;;;;5082291;28;20481;-84
2021/06/06 08:30:52;;;;;;;11.63;10.83;;;23.70;99.90;;;;;;5081729;28;20465;-85
2021/06/06 08:33:21;;;;;;;12.30;11.37;;;23.80;99.90;;;;;;5081386;28;20564;-84
2021/06/06 08:35:52;;;;;;;12.00;11.00;;;23.80;99.90;;;;;;5080363;28;20493;-85
2021/06/06 08:38:19;;;;;;;10.50;9.50;;;22.70;99.90;;;;;;5081948;28;20880;-84
2021/06/06 08:40:59;;;;;;;11.40;10.50;;;23.90;99.90;;;;;;5081663;28;20532;-84
2021/06/06 08:43:34;;;;;;;14.17;12.77;;;24.00;99.90;;;;;;5082143;28;20476;-85
2021/06/06 08:46:02;;;;;;;10.27;9.47;;;24.10;99.90;;;;;;5083096;28;20778;-84
2021/06/06 08:48:31;;;;;;;10.57;9.47;;;24.10;99.90;;;;;;5082068;28;20478;-85
2021/06/06 08:51:06;;;;;;;14.30;12.10;;;24.10;99.90;;;;;;5079721;28;20459;-84
2021/06/06 08:53:40;;;;;;;8.30;7.60;;;24.10;99.90;;;;;;5080683;28;20580;-85
2021/06/06 08:56:20;;;;;;;16.87;12.87;;;24.30;99.90;;;;;;5080070;28;20976;-84
2021/06/06 08:58:50;;;;;;;13.07;11.80;;;24.30;99.90;;;;;;5080623;28;20526;-84
2021/06/06 09:01:27;;;;;;;10.00;9.10;;;24.30;99.90;;;;;;5080195;28;20452;-85
2021/06/06 09:04:02;;;;;;;10.90;9.80;;;24.40;99.90;;;;;;5081377;28;20460;-85
2021/06/06 09:06:38;;;;;;;9.20;6.90;;;24.40;99.90;;;;;;5082304;28;20443;-85
2021/06/06 09:09:06;;;;;;;10.00;7.97;;;24.60;99.90;;;;;;5081446;28;20484;-85
2021/06/06 09:11:39;;;;;;;7.07;6.47;;;24.70;99.90;;;;;;5082984;28;20463;-85
2021/06/06 09:14:06;;;;;;;8.70;7.93;;;24.70;99.90;;;;;;5081230;28;20458;-84
2021/06/06 09:16:35;;;;;;;8.57;7.63;;;24.70;99.90;;;;;;5081364;28;20475;-85
2021/06/06 09:33:11;;;;;;;9.50;8.60;;;24.40;99.90;;;;;;4937957;22;20438;-81
2021/06/06 09:35:48;;;;;;;10.23;7.83;;;24.80;99.90;;;;;;5039690;28;20453;-82
2021/06/06 09:38:18;;;;;;;8.90;7.97;;;25.00;99.90;;;;;;5040715;28;20448;-82
2021/06/06 09:40:47;;;;;;;6.70;6.10;;;25.20;99.90;;;;;;5041219;28;20442;-81
2021/06/06 09:43:32;;;;;;;8.03;7.30;;;25.10;99.90;;;;;;5050083;28;20527;-79
2021/06/06 09:46:05;;;;;;;14.03;12.73;;;25.00;99.90;;;;;;5043839;28;20429;-80
2021/06/06 09:48:40;;;;;;;10.27;9.37;;;24.90;99.90;;;;;;5044915;28;20438;-79
2021/06/06 09:51:14;;;;;;;9.10;8.20;;;24.70;99.90;;;;;;5046283;28;20438;-80
2021/06/06 09:53:42;;;;;;;8.17;7.37;;;24.70;99.90;;;;;;5044870;28;20476;-80
2021/06/06 09:56:11;;;;;;;6.47;5.97;;;24.50;99.90;;;;;;5047147;28;20479;-81
2021/06/06 09:58:40;;;;;;;12.73;11.00;;;24.60;99.90;;;;;;5048060;28;20453;-81
2021/06/06 10:01:21;;;;;;;7.80;6.97;;;24.50;99.90;;;;;;5044673;28;20446;-82
2021/06/06 10:03:55;;;;;;;17.07;14.77;;;24.50;99.90;;;;;;5042583;28;20501;-81
2021/06/06 10:06:29;;;;;;;8.43;7.63;;;24.40;99.90;;;;;;5041527;28;20470;-79
2021/06/06 10:09:06;;;;;;;6.80;6.10;;;24.50;99.90;;;;;;5041946;28;20430;-82
2021/06/06 10:11:36;;;;;;;12.37;10.10;;;24.50;99.50;;;;;;5039998;28;20446;-82
2021/06/06 10:14:03;;;;;;;17.10;13.83;;;24.70;99.90;;;;;;5039565;28;20477;-82
2021/06/06 10:16:34;;;;;;;6.57;5.73;;;24.90;99.90;;;;;;5039438;28;20491;-80
2021/06/06 10:19:05;;;;;;;8.67;6.50;;;25.10;98.20;;;;;;5038483;28;20442;-79
2021/06/06 10:21:35;;;;;;;7.17;6.47;;;25.30;95.60;;;;;;5038603;28;20430;-81
2021/06/06 10:24:08;;;;;;;6.80;5.40;;;25.40;95.60;;;;;;5040030;28;20895;-80
2021/06/06 10:26:37;;;;;;;8.90;8.10;;;25.30;93.60;;;;;;5038922;28;20435;-80
2021/06/06 10:29:09;;;;;;;11.50;9.90;;;25.40;99.50;;;;;;5038810;28;20456;-81
2021/06/06 10:31:38;;;;;;;7.83;7.23;;;25.50;99.90;;;;;;5038948;28;20889;-81
2021/06/06 10:34:12;;;;;;;8.03;7.33;;;25.60;96.90;;;;;;5037767;28;20486;-81
2021/06/06 10:36:40;;;;;;;8.33;7.60;;;25.80;97.60;;;;;;5037561;28;20844;-83
2021/06/06 10:39:14;;;;;;;7.40;6.80;;;25.80;99.50;;;;;;5039491;28;20445;-81
2021/06/06 10:41:50;;;;;;;7.20;6.60;;;25.90;97.90;;;;;;5038874;28;20423;-82
2021/06/06 10:44:22;;;;;;;6.80;6.10;;;26.00;97.40;;;;;;5039233;28;20478;-82
2021/06/06 10:46:51;;;;;;;6.97;6.37;;;26.10;99.90;;;;;;5039757;28;20901;-82
2021/06/06 10:49:22;;;;;;;5.53;5.13;;;26.20;91.80;;;;;;5037762;28;20864;-81
2021/06/06 10:51:53;;;;;;;7.73;6.23;;;26.00;89.50;;;;;;5036806;28;20450;-81
2021/06/06 10:54:36;;;;;;;10.77;9.67;;;25.90;94.30;;;;;;5038348;28;20463;-82
2021/06/06 10:57:05;;;;;;;7.67;6.97;;;25.90;95.90;;;;;;5037906;28;20471;-80
2021/06/06 10:59:38;;;;;;;6.37;5.77;;;25.90;96.40;;;;;;5038549;28;20446;-81
2021/06/06 11:02:08;;;;;;;8.23;7.23;;;25.70;90.90;;;;;;5043492;28;20438;-82
2021/06/06 11:04:49;;;;;;;6.17;5.57;;;25.60;92.80;;;;;;5039203;28;20891;-82
2021/06/06 11:07:36;;;;;;;6.53;5.93;;;25.40;89.80;;;;;;5039519;28;20423;-81
2021/06/06 11:10:07;;;;;;;6.40;5.50;;;25.30;94.60;;;;;;5039292;28;20426;-82
2021/06/06 11:12:36;;;;;;;6.40;5.80;;;25.30;94.20;;;;;;5039924;28;20459;-81
2021/06/06 11:15:16;;;;;;;9.20;8.40;;;25.30;91.00;;;;;;5039132;28;20466;-81
2021/06/06 11:17:42;;;;;;;9.67;8.70;;;25.40;96.60;;;;;;5037972;28;20526;-80
2021/06/06 11:20:29;;;;;;;9.00;8.20;;;25.50;96.00;;;;;;5041284;28;20446;-79
2021/06/06 11:22:56;;;;;;;21.17;18.30;;;25.60;96.20;;;;;;5047511;28;20427;-81
2021/06/06 11:25:37;;;;;;;12.50;10.97;;;25.70;97.00;;;;;;5040342;28;20442;-82
2021/06/06 11:28:08;;;;;;;7.10;6.53;;;25.60;96.80;;;;;;5039383;28;20436;-81
2021/06/06 11:30:43;;;;;;;6.43;5.93;;;25.50;90.50;;;;;;5037981;28;20980;-80
2021/06/06 11:33:13;;;;;;;7.03;6.43;;;25.40;90.00;;;;;;5037768;28;20434;-81
2021/06/06 11:35:50;;;;;;;7.10;6.50;;;25.30;90.60;;;;;;5038594;28;20430;-82
2021/06/06 11:38:31;;;;;;;7.13;6.63;;;25.20;93.00;;;;;;5039628;28;20439;-81
2021/06/06 11:41:29;;;;;;;8.47;7.63;;;25.20;96.30;;;;;;5043220;28;20463;-82
2021/06/06 11:43:59;;;;;;;8.40;7.60;;;25.20;94.70;;;;;;5033101;28;20485;-80
2021/06/06 11:46:30;;;;;;;8.17;7.57;;;25.10;94.80;;;;;;5043577;28;20446;-80
2021/06/06 11:49:03;;;;;;;9.37;8.47;;;25.10;96.00;;;;;;5043618;28;20435;-79
2021/06/06 11:51:39;;;;;;;10.70;9.70;;;25.30;97.20;;;;;;5047994;28;20461;-80
2021/06/06 11:54:22;;;;;;;11.63;10.50;;;25.50;98.00;;;;;;5053263;28;20477;-81
2021/06/06 11:56:48;;;;;;;9.83;6.00;;;25.60;96.70;;;;;;5028601;28;21074;-82
2021/06/06 11:59:20;;;;;;;6.30;5.73;;;25.70;90.80;;;;;;5042254;28;20482;-81
2021/06/06 12:01:50;;;;;;;7.43;6.77;;;25.80;92.90;;;;;;5042360;28;20431;-81
2021/06/06 12:04:24;;;;;;;7.30;6.60;;;25.90;91.10;;;;;;5042146;28;20478;-81
2021/06/06 12:06:52;;;;;;;7.77;6.50;;;26.00;89.00;;;;;;5043379;28;20422;-82
2021/06/06 12:09:22;;;;;;;8.10;7.40;;;26.10;89.50;;;;;;5046842;28;20557;-80
2021/06/06 12:11:50;;;;;;;7.10;6.40;;;26.20;94.40;;;;;;5049203;28;20466;-79
2021/06/06 12:14:19;;;;;;;6.40;5.90;;;26.20;87.60;;;;;;5044845;28;20497;-81
2021/06/06 12:16:49;;;;;;;5.90;5.50;;;26.20;92.30;;;;;;5047463;28;20482;-82
2021/06/06 12:19:17;;;;;;;6.67;5.93;;;26.30;93.40;;;;;;5047804;28;20450;-80
2021/06/06 12:21:48;;;;;;;7.27;6.57;;;26.40;84.50;;;;;;5044930;28;20485;-80
2021/06/06 12:24:20;;;;;;;7.57;6.57;;;26.50;92.80;;;;;;5044508;28;20482;-79
2021/06/06 12:26:50;;;;;;;6.67;6.07;;;26.50;88.70;;;;;;5043816;28;20430;-80
2021/06/06 12:29:26;;;;;;;7.77;6.77;;;26.60;91.20;;;;;;5041782;28;20526;-80
2021/06/06 12:31:52;;;;;;;7.33;6.80;;;26.70;92.90;;;;;;5042319;28;20431;-81
2021/06/06 12:34:22;;;;;;;9.27;8.33;;;26.70;92.60;;;;;;5041998;28;20470;-82
2021/06/06 12:36:50;;;;;;;7.63;7.03;;;26.70;92.70;;;;;;5040963;28;20467;-81
2021/06/06 12:39:21;;;;;;;6.83;5.93;;;26.60;86.00;;;;;;5041507;28;20651;-81
2021/06/06 12:41:49;;;;;;;6.87;6.20;;;26.50;86.40;;;;;;5039789;28;20443;-79
2021/06/06 12:44:17;;;;;;;7.00;6.33;;;26.50;92.40;;;;;;5039253;28;21035;-81
2021/06/06 12:46:49;;;;;;;7.90;7.20;;;26.60;92.90;;;;;;5040315;28;20443;-81
2021/06/06 12:49:16;;;;;;;12.43;11.07;;;26.70;93.50;;;;;;5042820;28;20434;-79
2021/06/06 12:51:47;;;;;;;8.97;7.73;;;26.80;93.20;;;;;;5047951;28;20449;-81
2021/06/06 12:54:16;;;;;;;8.10;7.40;;;26.90;92.80;;;;;;5052070;28;20538;-81
2021/06/06 12:56:45;;;;;;;10.00;8.00;;;26.90;91.60;;;;;;5052455;28;20486;-81
2021/06/06 12:59:14;;;;;;;7.93;7.27;;;26.90;92.50;;;;;;5053407;28;20426;-80
2021/06/06 13:01:41;;;;;;;6.80;6.30;;;27.00;92.50;;;;;;5053108;28;20450;-81
2021/06/06 13:04:19;;;;;;;8.40;7.50;;;27.00;93.40;;;;;;5052889;28;20463;-80
2021/06/06 13:06:46;;;;;;;7.37;6.77;;;27.10;91.50;;;;;;5055244;28;20435;-81
2021/06/06 13:09:26;;;;;;;7.83;7.13;;;27.10;89.30;;;;;;5042258;28;20466;-81